Hackettstown, NJ

4:42 AM EDT on May 07, 2015 (GMT -0400)
Mt Olive Township | | Change Station
CLOSE
Current Station
Personal Weather Station
Location: Budd Lake, NJ
Elevation: 1013 ft
Nearby Weather Stations

Elev 1013 ft 40.87 °N, 74.75 °W | Updated 2 seconds ago

Partly Cloudy
Partly Cloudy
44.4 °F
Feels Like 44 °F
N
0.0
Wind Variable Wind from SW
Gusts 4.0 mph

Today
High -- | Low -- °F
--% Chance of Precip.
Yesterday
High -- | Low -- °F
Precip. -- in
5:50 AM 8:01 PM
Waning Gibbous, 89% visible
Pressure 30.21 in
Visibility 9.0 miles
Clouds Clear
Windchill 44 °F
Dew Point 42 °F
Humidity 93%
Rainfall 0.00 in
Snow Depth Not available.
UV 0 out of 12
Pollen 3.80 out of 12
Air Quality Not available.
Flu Activity Local Activity
METAR KSMQ 070753Z AUTO 00000KT 9SM CLR 08/07 A3020 RMK AO2 SLP228 T00830067 TSNO

More Conditions Fewer Conditions

Pressure 30.21 in
Visibility 9.0 miles
Clouds Clear
Windchill 44 °F
Dew Point 42 °F
Humidity 93%
Rainfall 0.00 in
Snow Depth Not available.
UV 0 out of 12
Pollen 3.80 out of 12
Air Quality Not available.
Flu Activity Local Activity
METAR KSMQ 070753Z AUTO 00000KT 9SM CLR 08/07 A3020 RMK AO2 SLP228 T00830067 TSNO

More Conditions Fewer Conditions

10-Day Weather Forecast

Almanac

Astronomy

May. 07, 2015 Rise Set
Actual Time
Civil Twilight
Nautical Twilight
Astronomical Twilight
Moon
Length of Visible Light
Length of Day
Tomorrow will be .
, % of the Moon is Illuminated

Today's Extremes

State Highs State Lows

Community

WunderPhotos

Upload Photos

1,819,126 photos uploaded!

WunderBlogs® & News

Nearby

Air Quality

  Air Quality AQ Index Pollutant
Not available.

Snow Depth

Station Depth Elevation

Earthquake Activity

City Distance Mag. Time & Date
Minimum magnitude displayed is 2.5.

Coastal Water Temperatures

Place Temperature

Stations

Nearby Weather Stations

Station Location Temp. Windchill Dew Point Humidity Wind Precip. Elev Updated Type